Time;durP1;ratioP1;P1;durP2;ratioP2;P2;SDS_P1;SDS_P2;PMS_P1;PMS_P2;Temp;Humidity;BMP_temperature;BMP_pressure;BME280_temperature;BME280_humidity;BME280_pressure;Samples;Min_cycle;Max_cycle;Signal;HPM_P1;HPM_P2
2022/12/14 00:00:32;;;;;;;21.10;14.40;;;-0.20;18.60;;;;;;5117097;28;20174;-78
2022/12/14 00:02:57;;;;;;;26.10;14.97;;;-0.10;17.10;;;;;;5122781;28;20175;-78
2022/12/14 00:05:23;;;;;;;21.80;14.20;;;-0.10;16.40;;;;;;5115138;28;20170;-80
2022/12/14 00:07:49;;;;;;;20.53;14.43;;;0.00;15.70;;;;;;5136752;28;20164;-75
2022/12/14 00:10:14;;;;;;;20.77;14.27;;;0.10;14.20;;;;;;5130233;28;20238;-79
2022/12/14 00:12:40;;;;;;;22.10;13.53;;;0.10;12.60;;;;;;5116625;28;20209;-78
2022/12/14 00:15:07;;;;;;;19.53;13.40;;;0.10;9.00;;;;;;5136072;28;20206;-76
2022/12/14 00:17:33;;;;;;;22.40;13.87;;;0.10;8.10;;;;;;5121987;28;20195;-78
2022/12/14 00:19:59;;;;;;;21.57;13.50;;;0.10;6.60;;;;;;5114600;28;20246;-83
2022/12/14 00:22:24;;;;;;;22.60;14.50;;;0.00;5.30;;;;;;5113282;28;20163;-76
2022/12/14 00:24:50;;;;;;;21.80;13.23;;;-0.10;6.90;;;;;;5113585;28;20167;-80
2022/12/14 00:27:16;;;;;;;20.23;12.97;;;-0.10;8.00;;;;;;5113262;28;20253;-78
2022/12/14 00:29:41;;;;;;;19.43;13.67;;;0.00;9.80;;;;;;5113233;28;20167;-79
2022/12/14 00:32:07;;;;;;;18.53;13.00;;;0.10;7.10;;;;;;5113435;28;20565;-78
2022/12/14 00:34:33;;;;;;;22.60;12.83;;;0.10;5.00;;;;;;5113638;28;20167;-79
2022/12/14 00:36:58;;;;;;;21.63;13.63;;;0.30;5.20;;;;;;5114624;28;20630;-79
2022/12/14 00:39:24;;;;;;;21.23;12.90;;;0.10;4.40;;;;;;5112868;28;20191;-77
2022/12/14 00:41:50;;;;;;;21.17;13.33;;;0.30;1.80;;;;;;5113051;28;20292;-76
2022/12/14 00:44:15;;;;;;;20.43;13.30;;;0.10;1.00;;;;;;5116704;28;20178;-82
2022/12/14 00:46:41;;;;;;;19.73;12.20;;;0.10;1.00;;;;;;5098054;28;20182;-79
2022/12/14 00:49:06;;;;;;;18.93;13.13;;;0.00;1.00;;;;;;5116259;28;20191;-79
2022/12/14 00:51:32;;;;;;;19.97;13.17;;;0.20;1.00;;;;;;5098285;28;20166;-78
2022/12/14 00:53:58;;;;;;;18.97;12.10;;;0.30;1.00;;;;;;5116840;28;20174;-78
2022/12/14 00:56:23;;;;;;;20.00;12.50;;;0.30;1.00;;;;;;5116558;28;20194;-77
2022/12/14 00:58:50;;;;;;;17.90;12.70;;;0.20;1.00;;;;;;5116166;28;20182;-77
2022/12/14 01:01:16;;;;;;;18.80;12.37;;;0.30;1.00;;;;;;5116151;28;20160;-78
2022/12/14 01:03:42;;;;;;;17.73;12.47;;;0.30;1.00;;;;;;5116140;28;20167;-77
2022/12/14 01:06:19;;;;;;;22.83;13.40;;;0.40;1.00;;;;;;5115939;28;20167;-77
2022/12/14 01:08:46;;;;;;;20.07;12.47;;;0.40;1.00;;;;;;5116186;28;20163;-78
2022/12/14 01:11:12;;;;;;;21.37;13.40;;;0.50;1.00;;;;;;5116166;28;20269;-78
2022/12/14 01:13:39;;;;;;;19.57;13.57;;;0.50;1.00;;;;;;5116308;28;20653;-77
2022/12/14 01:16:08;;;;;;;20.37;12.87;;;0.40;1.00;;;;;;5115948;28;20179;-78
2022/12/14 01:18:35;;;;;;;19.73;12.43;;;0.40;1.00;;;;;;5116703;28;20289;-78
2022/12/14 01:21:19;;;;;;;19.60;12.10;;;0.50;1.00;;;;;;5096870;28;20167;-78
2022/12/14 01:23:46;;;;;;;16.87;12.30;;;0.40;1.00;;;;;;5098168;28;20623;-79
2022/12/14 01:26:16;;;;;;;17.77;11.70;;;0.30;1.00;;;;;;5097657;28;20224;-78
2022/12/14 01:28:41;;;;;;;17.13;11.67;;;0.20;1.00;;;;;;5116162;28;20184;-77
2022/12/14 01:31:10;;;;;;;17.80;11.93;;;0.10;1.00;;;;;;5115474;28;20180;-76
2022/12/14 01:33:36;;;;;;;16.87;11.93;;;0.10;1.00;;;;;;5115801;28;20175;-78
2022/12/14 01:36:11;;;;;;;20.10;12.30;;;0.10;1.00;;;;;;5097402;28;20174;-78
2022/12/14 01:38:37;;;;;;;18.70;11.90;;;0.00;1.00;;;;;;5116172;28;20286;-78
2022/12/14 01:41:04;;;;;;;17.50;12.80;;;-0.10;1.00;;;;;;5117488;28;20170;-81
2022/12/14 01:43:46;;;;;;;20.20;12.27;;;0.00;1.00;;;;;;5117087;28;20159;-79
2022/12/14 01:46:16;;;;;;;20.53;12.37;;;0.20;1.00;;;;;;5115795;28;20174;-83
2022/12/14 01:48:41;;;;;;;23.53;12.93;;;0.30;1.00;;;;;;5116841;28;20201;-82
2022/12/14 01:51:07;;;;;;;17.67;12.17;;;0.30;1.00;;;;;;5120485;28;20199;-80
2022/12/14 01:53:33;;;;;;;17.83;12.23;;;0.50;1.00;;;;;;5122437;28;20171;-79
2022/12/14 01:55:58;;;;;;;17.23;11.73;;;0.50;1.00;;;;;;5120379;28;20213;-77
2022/12/14 01:58:25;;;;;;;20.70;13.50;;;0.50;1.00;;;;;;5099483;28;20202;-77
2022/12/14 02:00:59;;;;;;;18.97;12.23;;;0.40;1.00;;;;;;5117329;28;20615;-79
2022/12/14 02:03:33;;;;;;;18.60;12.03;;;0.40;1.00;;;;;;5100010;28;20183;-78
2022/12/14 02:06:04;;;;;;;17.57;11.67;;;0.40;1.00;;;;;;5115696;28;20649;-78
2022/12/14 02:08:31;;;;;;;19.30;11.80;;;0.30;1.00;;;;;;5115672;28;20570;-77
2022/12/14 02:10:58;;;;;;;19.50;12.53;;;0.40;1.00;;;;;;5115171;28;20182;-84
2022/12/14 02:13:33;;;;;;;18.63;12.50;;;0.50;1.00;;;;;;5115101;28;20239;-83
2022/12/14 02:15:58;;;;;;;18.73;12.63;;;0.70;1.00;;;;;;5097641;28;20182;-80
2022/12/14 02:18:26;;;;;;;18.53;11.90;;;0.80;1.00;;;;;;5116056;28;20230;-78
2022/12/14 02:21:43;;;;;;;19.77;12.47;;;0.90;1.00;;;;;;5116062;28;20171;-79
2022/12/14 02:24:23;;;;;;;16.17;11.57;;;0.80;1.00;;;;;;5060690;28;20647;-76
2022/12/14 02:27:12;;;;;;;19.67;12.57;;;0.70;1.00;;;;;;5116040;28;20199;-77
2022/12/14 02:29:59;;;;;;;19.17;11.73;;;0.90;1.00;;;;;;5100775;28;20174;-76
2022/12/14 02:32:27;;;;;;;22.00;13.23;;;0.80;1.00;;;;;;5127415;28;20154;-77
2022/12/14 02:35:08;;;;;;;21.10;12.83;;;0.90;1.00;;;;;;5130764;28;20203;-76
2022/12/14 02:37:56;;;;;;;20.67;12.03;;;0.80;1.00;;;;;;5119557;28;20201;-79
2022/12/14 02:40:46;;;;;;;20.27;12.57;;;1.00;1.00;;;;;;5115902;28;20167;-79
2022/12/14 02:43:42;;;;;;;18.43;12.40;;;1.00;1.00;;;;;;5114984;28;20167;-77
2022/12/14 02:46:14;;;;;;;17.93;11.30;;;1.20;1.00;;;;;;5114874;28;20175;-81
2022/12/14 02:48:46;;;;;;;18.83;11.40;;;1.30;1.00;;;;;;5115200;28;20245;-77
2022/12/14 02:51:30;;;;;;;18.57;11.93;;;1.30;1.00;;;;;;5120304;28;20179;-77
2022/12/14 02:54:31;;;;;;;17.57;12.33;;;1.20;1.00;;;;;;5121074;28;20171;-77
2022/12/14 02:57:07;;;;;;;16.30;11.03;;;1.00;1.00;;;;;;5044299;28;20308;-81
2022/12/14 02:59:33;;;;;;;16.87;10.23;;;0.80;1.00;;;;;;5114355;28;20178;-80
2022/12/14 03:02:02;;;;;;;17.93;12.57;;;0.50;1.00;;;;;;5115272;28;20638;-79
2022/12/14 03:04:27;;;;;;;19.13;11.40;;;0.50;1.00;;;;;;5127475;28;20170;-77
2022/12/14 03:07:01;;;;;;;17.10;11.63;;;0.40;1.00;;;;;;5134440;28;20224;-75
2022/12/14 03:09:30;;;;;;;19.47;12.03;;;0.40;1.00;;;;;;5136870;28;20162;-76
2022/12/14 03:12:03;;;;;;;16.60;11.70;;;0.40;1.00;;;;;;5125435;28;20167;-79
2022/12/14 03:14:40;;;;;;;17.37;11.50;;;0.40;1.00;;;;;;5115544;28;20167;-78
2022/12/14 03:17:21;;;;;;;18.90;11.90;;;0.50;1.00;;;;;;5114084;28;20726;-77
2022/12/14 03:19:55;;;;;;;16.87;11.27;;;0.60;1.00;;;;;;5095705;28;20700;-78
2022/12/14 03:22:36;;;;;;;14.57;10.33;;;0.90;1.00;;;;;;5113678;28;20158;-77
2022/12/14 03:25:13;;;;;;;18.70;11.40;;;1.10;1.00;;;;;;5095986;28;20202;-77
2022/12/14 03:27:45;;;;;;;15.93;10.80;;;1.10;1.00;;;;;;5113577;28;20167;-77
2022/12/14 03:30:14;;;;;;;17.10;11.73;;;1.00;1.00;;;;;;5095353;28;20174;-77
2022/12/14 03:32:51;;;;;;;17.93;12.10;;;1.10;1.00;;;;;;5095467;28;20631;-77
2022/12/14 03:35:23;;;;;;;17.73;11.73;;;1.10;1.00;;;;;;5095657;28;20206;-78
2022/12/14 03:37:58;;;;;;;15.07;10.47;;;1.00;1.00;;;;;;5113558;28;20203;-78
2022/12/14 03:40:33;;;;;;;16.03;11.80;;;1.00;1.00;;;;;;5115587;28;20166;-78
2022/12/14 03:43:19;;;;;;;17.80;11.43;;;1.10;1.00;;;;;;5117229;28;20174;-77
2022/12/14 03:46:02;;;;;;;16.63;10.80;;;1.00;1.00;;;;;;5113568;28;20171;-77
2022/12/14 03:48:34;;;;;;;15.57;10.90;;;1.00;1.00;;;;;;5094193;28;20175;-77
2022/12/14 03:51:31;;;;;;;14.17;10.50;;;1.20;1.00;;;;;;5112691;28;20649;-78
2022/12/14 03:54:29;;;;;;;17.23;10.83;;;1.30;1.00;;;;;;5095195;28;20701;-76
2022/12/14 03:56:58;;;;;;;15.87;10.80;;;1.20;1.00;;;;;;5113022;28;20285;-78
2022/12/14 03:59:53;;;;;;;15.97;10.53;;;1.20;1.00;;;;;;5113305;28;20171;-76
2022/12/14 04:02:28;;;;;;;16.60;10.57;;;1.20;1.00;;;;;;5095171;28;20167;-77
2022/12/14 04:05:14;;;;;;;14.13;9.60;;;1.00;1.00;;;;;;5113422;28;20209;-78
2022/12/14 04:08:01;;;;;;;15.73;10.60;;;0.90;1.00;;;;;;5095074;28;20167;-78
2022/12/14 04:19:30;;;;;;;15.90;9.73;;;1.10;1.00;;;;;;5117810;28;20182;-78
2022/12/14 04:22:00;;;;;;;16.03;10.90;;;1.30;1.00;;;;;;5117239;28;20171;-80
2022/12/14 04:27:40;;;;;;;16.10;10.57;;;1.00;1.00;;;;;;5117113;28;20174;-78
2022/12/14 04:30:08;;;;;;;17.47;11.27;;;1.00;1.00;;;;;;5116769;28;20167;-78
2022/12/14 04:32:46;;;;;;;18.23;12.47;;;0.90;1.00;;;;;;5098659;28;20185;-78
2022/12/14 04:35:27;;;;;;;18.83;12.73;;;0.80;1.00;;;;;;5115550;28;20576;-78
2022/12/14 04:38:09;;;;;;;18.83;12.13;;;0.60;1.00;;;;;;5115730;28;20234;-77
2022/12/14 04:40:41;;;;;;;20.30;12.90;;;0.40;1.00;;;;;;5126129;28;20190;-76
2022/12/14 04:43:13;;;;;;;17.90;11.77;;;0.40;1.00;;;;;;5120258;28;20179;-78
2022/12/14 04:45:51;;;;;;;19.17;12.10;;;0.20;1.00;;;;;;5117106;28;20179;-79
2022/12/14 04:48:29;;;;;;;22.03;13.93;;;0.00;2.10;;;;;;5116268;28;20270;-77
2022/12/14 04:51:09;;;;;;;20.40;12.83;;;0.00;8.10;;;;;;5115830;28;20174;-80
2022/12/14 04:53:37;;;;;;;18.73;12.83;;;0.10;10.10;;;;;;5116507;28;20198;-79
2022/12/14 04:56:19;;;;;;;20.67;12.73;;;0.40;7.60;;;;;;5098522;28;20231;-80
2022/12/14 04:58:45;;;;;;;18.43;12.63;;;0.40;2.10;;;;;;5116768;28;20690;-77
2022/12/14 05:01:29;;;;;;;19.77;13.00;;;0.40;1.10;;;;;;5099053;28;20175;-79
2022/12/14 05:04:32;;;;;;;20.17;12.63;;;0.40;1.00;;;;;;5099711;28;20175;-77
2022/12/14 05:07:32;;;;;;;19.40;13.20;;;0.30;1.00;;;;;;5135294;28;20185;-77
2022/12/14 05:10:24;;;;;;;20.37;12.40;;;0.20;5.80;;;;;;5089655;28;20887;-78
2022/12/14 05:13:13;;;;;;;21.37;12.50;;;0.10;5.30;;;;;;5116214;28;20163;-77
2022/12/14 05:15:49;;;;;;;20.20;12.87;;;-0.10;10.40;;;;;;5115748;28;20171;-77
2022/12/14 05:18:15;;;;;;;23.10;12.83;;;-0.20;15.70;;;;;;5116287;28;20221;-77
2022/12/14 05:20:40;;;;;;;22.07;13.17;;;-0.10;17.10;;;;;;5115850;28;20171;-77
2022/12/14 05:23:08;;;;;;;20.07;12.90;;;0.00;15.00;;;;;;5130070;28;20226;-77
2022/12/14 05:25:34;;;;;;;19.17;11.60;;;0.10;13.30;;;;;;5133248;28;20642;-77
2022/12/14 05:28:00;;;;;;;19.80;12.67;;;0.00;14.00;;;;;;5116899;28;20171;-76
2022/12/14 05:30:26;;;;;;;21.77;13.90;;;0.00;16.40;;;;;;5116452;28;20185;-77
2022/12/14 05:32:52;;;;;;;20.43;12.83;;;0.10;16.50;;;;;;5116146;28;20558;-78
2022/12/14 05:35:18;;;;;;;18.50;13.03;;;0.10;15.50;;;;;;5115969;28;20193;-77
2022/12/14 05:37:43;;;;;;;19.90;12.50;;;0.10;15.40;;;;;;5115306;28;20214;-78
2022/12/14 05:40:10;;;;;;;23.20;12.87;;;0.00;16.00;;;;;;5095825;28;20171;-77
2022/12/14 05:42:36;;;;;;;22.53;13.40;;;0.10;17.60;;;;;;5097330;28;20171;-78
2022/12/14 05:45:01;;;;;;;21.33;13.23;;;0.20;17.50;;;;;;5115475;28;20556;-78
2022/12/14 05:47:27;;;;;;;20.60;12.70;;;0.10;15.20;;;;;;5096532;28;20261;-78
2022/12/14 05:49:53;;;;;;;19.33;12.87;;;0.10;13.80;;;;;;5116126;28;20166;-78
2022/12/14 05:52:18;;;;;;;19.90;13.73;;;0.10;15.10;;;;;;5114348;28;20163;-80
2022/12/14 05:54:44;;;;;;;20.07;13.30;;;0.10;15.90;;;;;;5116008;28;20646;-77
2022/12/14 05:57:11;;;;;;;21.17;13.63;;;0.30;14.50;;;;;;5115491;28;20187;-83
2022/12/14 05:59:37;;;;;;;20.67;12.90;;;0.50;11.80;;;;;;5120658;28;20163;-77
2022/12/14 06:02:04;;;;;;;22.00;13.57;;;0.60;8.90;;;;;;5137248;28;20159;-77
2022/12/14 06:04:29;;;;;;;22.63;13.67;;;0.50;6.00;;;;;;5137246;28;20163;-77
2022/12/14 06:06:55;;;;;;;21.73;12.33;;;0.40;4.80;;;;;;5130897;28;20183;-79
2022/12/14 06:09:21;;;;;;;19.90;12.27;;;0.30;5.20;;;;;;5122920;28;20190;-78
2022/12/14 06:11:48;;;;;;;23.30;13.23;;;0.20;9.60;;;;;;5117250;28;20175;-77
2022/12/14 06:14:13;;;;;;;22.27;12.97;;;0.20;10.00;;;;;;5116497;28;20216;-78
2022/12/14 06:16:41;;;;;;;22.00;13.67;;;0.10;12.10;;;;;;5114658;28;20257;-77
2022/12/14 06:19:08;;;;;;;21.87;13.80;;;0.10;14.10;;;;;;5114571;28;20179;-78
2022/12/14 06:21:36;;;;;;;22.13;14.30;;;0.00;15.20;;;;;;5114136;28;20627;-79
2022/12/14 06:24:02;;;;;;;21.53;13.73;;;0.10;18.10;;;;;;5114671;28;20175;-79
2022/12/14 06:26:30;;;;;;;20.83;13.70;;;0.30;17.30;;;;;;5113929;28;20642;-78
2022/12/14 06:28:56;;;;;;;19.97;12.80;;;0.40;15.30;;;;;;5114728;28;20178;-79
2022/12/14 06:31:24;;;;;;;23.40;14.10;;;0.30;13.90;;;;;;5114928;28;20245;-78
2022/12/14 06:33:52;;;;;;;24.40;14.63;;;0.20;16.20;;;;;;5114714;28;20167;-78
2022/12/14 06:36:29;;;;;;;20.10;13.43;;;0.10;18.90;;;;;;5095888;28;20178;-80
2022/12/14 06:38:58;;;;;;;23.33;14.23;;;0.20;19.30;;;;;;5114566;28;20229;-81
2022/12/14 06:41:24;;;;;;;21.47;13.80;;;0.10;18.20;;;;;;5114613;28;20194;-78
2022/12/14 06:43:51;;;;;;;21.00;13.07;;;0.10;18.70;;;;;;5114518;28;20181;-80
2022/12/14 06:46:20;;;;;;;23.97;14.20;;;0.10;18.80;;;;;;5114724;28;20175;-77
2022/12/14 06:48:53;;;;;;;18.93;13.07;;;0.00;19.60;;;;;;5114065;28;20171;-77
2022/12/14 06:51:20;;;;;;;26.40;13.73;;;0.00;21.00;;;;;;5099603;28;20175;-78
2022/12/14 06:53:50;;;;;;;20.07;13.17;;;0.10;22.40;;;;;;5102545;28;20179;-78
2022/12/14 06:56:16;;;;;;;22.27;13.70;;;0.00;21.00;;;;;;5124662;28;20167;-80
2022/12/14 06:58:43;;;;;;;22.33;13.33;;;0.00;22.40;;;;;;5114716;28;20238;-79
2022/12/14 07:01:12;;;;;;;20.93;13.47;;;-0.10;23.60;;;;;;5096327;28;20175;-81
2022/12/14 07:03:38;;;;;;;22.70;13.87;;;-0.10;26.20;;;;;;5112809;28;20175;-81
2022/12/14 07:06:05;;;;;;;22.17;13.33;;;-0.10;25.80;;;;;;5079636;28;20214;-82
2022/12/14 07:08:33;;;;;;;21.57;13.67;;;-0.10;25.10;;;;;;5094320;28;20175;-80
2022/12/14 07:11:01;;;;;;;23.17;14.57;;;0.00;25.40;;;;;;5106462;28;20265;-77
2022/12/14 07:13:27;;;;;;;26.30;15.43;;;-0.10;24.40;;;;;;5091438;27;20171;-79
2022/12/14 07:15:54;;;;;;;26.10;15.23;;;-0.10;26.20;;;;;;5093428;28;20206;-78
2022/12/14 07:18:20;;;;;;;21.17;13.07;;;0.00;26.20;;;;;;5105205;28;20697;-78
2022/12/14 07:21:09;;;;;;;22.77;13.40;;;0.00;23.20;;;;;;5111029;28;20693;-81
2022/12/14 07:23:38;;;;;;;23.30;14.40;;;-0.10;24.30;;;;;;5112028;28;20167;-77
2022/12/14 07:26:09;;;;;;;22.57;14.60;;;0.00;25.30;;;;;;5114207;28;20169;-79
2022/12/14 07:28:35;;;;;;;18.50;12.67;;;-0.10;24.40;;;;;;5114056;28;20171;-77
2022/12/14 07:31:03;;;;;;;21.40;12.77;;;-0.10;25.60;;;;;;5113581;28;20163;-77
2022/12/14 07:33:28;;;;;;;24.90;14.50;;;-0.20;26.20;;;;;;5107561;28;20210;-76
2022/12/14 07:36:10;;;;;;;23.47;13.70;;;-0.20;27.10;;;;;;5086863;28;20190;-79
2022/12/14 07:38:37;;;;;;;22.23;13.37;;;-0.20;29.00;;;;;;5101149;28;20233;-76
2022/12/14 07:41:14;;;;;;;27.47;13.93;;;-0.20;29.80;;;;;;5113567;28;20167;-77
2022/12/14 07:43:40;;;;;;;24.33;14.77;;;-0.20;28.40;;;;;;5107629;28;20167;-78
2022/12/14 07:46:12;;;;;;;19.87;13.13;;;-0.30;30.60;;;;;;5093835;28;20180;-79
2022/12/14 07:48:42;;;;;;;23.57;13.27;;;-0.30;29.70;;;;;;5075190;28;20186;-78
2022/12/14 07:51:10;;;;;;;24.33;14.07;;;-0.20;35.70;;;;;;5075080;28;20218;-80
2022/12/14 07:53:38;;;;;;;23.50;13.10;;;-0.30;35.20;;;;;;5098086;28;20201;-79
2022/12/14 07:56:08;;;;;;;25.80;14.67;;;-0.40;34.60;;;;;;5099285;28;20182;-80
2022/12/14 07:58:34;;;;;;;29.17;15.13;;;-0.40;36.70;;;;;;5111007;28;20240;-78
2022/12/14 08:01:07;;;;;;;25.80;15.53;;;-0.40;37.80;;;;;;5123251;28;20718;-81
2022/12/14 08:03:33;;;;;;;31.67;16.30;;;-0.40;40.10;;;;;;5116217;28;20183;-82
2022/12/14 08:06:09;;;;;;;27.00;14.73;;;-0.40;42.90;;;;;;5114006;28;20175;-80
2022/12/14 08:08:35;;;;;;;25.70;16.20;;;-0.40;42.30;;;;;;5093026;28;20211;-81
2022/12/14 08:11:00;;;;;;;29.57;15.13;;;-0.50;41.20;;;;;;5096051;28;20187;-80
2022/12/14 08:13:26;;;;;;;31.30;15.17;;;-0.40;42.10;;;;;;5086656;28;20187;-80
2022/12/14 08:15:52;;;;;;;22.07;14.13;;;-0.40;42.60;;;;;;5096889;28;20494;-80
2022/12/14 08:18:18;;;;;;;22.97;14.20;;;-0.40;39.80;;;;;;5097736;28;20282;-79
2022/12/14 08:20:47;;;;;;;22.83;14.07;;;-0.40;38.70;;;;;;5097213;28;20227;-81
2022/12/14 08:23:12;;;;;;;23.93;15.43;;;-0.40;37.30;;;;;;5100429;28;20666;-81
2022/12/14 08:25:38;;;;;;;26.53;15.90;;;-0.50;39.10;;;;;;5100913;28;20175;-81
2022/12/14 08:28:04;;;;;;;25.97;15.93;;;-0.50;40.00;;;;;;5115750;28;20175;-81
2022/12/14 08:30:29;;;;;;;23.57;14.87;;;-0.60;43.20;;;;;;5116090;28;20172;-81
2022/12/14 08:32:55;;;;;;;27.23;14.77;;;-0.60;46.80;;;;;;5114173;28;20175;-81
2022/12/14 08:35:21;;;;;;;24.57;14.90;;;-0.50;47.30;;;;;;5110167;28;20623;-81
2022/12/14 08:37:46;;;;;;;27.20;15.70;;;-0.40;48.10;;;;;;5117619;28;20228;-80
2022/12/14 08:40:12;;;;;;;23.17;14.67;;;-0.30;47.50;;;;;;5117903;28;20265;-83
2022/12/14 08:42:38;;;;;;;21.97;14.33;;;-0.20;43.30;;;;;;5112376;27;20194;-79
2022/12/14 08:45:04;;;;;;;24.87;15.97;;;-0.10;37.50;;;;;;5105277;28;20167;-83
2022/12/14 08:47:30;;;;;;;25.33;17.07;;;0.00;34.00;;;;;;5117585;28;20201;-82
2022/12/14 08:49:56;;;;;;;25.17;14.80;;;0.00;30.40;;;;;;5117311;28;20633;-81
2022/12/14 08:52:22;;;;;;;23.70;15.17;;;-0.10;27.90;;;;;;5120986;28;20174;-83
2022/12/14 08:54:47;;;;;;;23.53;14.87;;;-0.10;28.30;;;;;;5127741;28;20226;-81
2022/12/14 08:57:13;;;;;;;27.60;16.37;;;-0.30;27.00;;;;;;5113605;28;20258;-81
2022/12/14 08:59:38;;;;;;;31.43;17.37;;;-0.30;29.00;;;;;;5126368;28;20200;-83
2022/12/14 09:02:08;;;;;;;36.33;17.90;;;-0.20;28.40;;;;;;5123896;28;20169;-83
2022/12/14 09:04:45;;;;;;;26.30;16.87;;;-0.10;28.10;;;;;;5118797;28;20167;-81
2022/12/14 09:07:14;;;;;;;29.63;17.00;;;-0.10;26.20;;;;;;5099221;28;20170;-85
2022/12/14 09:09:40;;;;;;;32.17;16.43;;;0.10;25.70;;;;;;5100553;28;20274;-82
2022/12/14 09:12:06;;;;;;;26.70;17.10;;;0.20;22.90;;;;;;5096882;28;20190;-83
2022/12/14 09:14:35;;;;;;;26.50;16.53;;;0.20;21.90;;;;;;5088852;28;20183;-84
2022/12/14 09:17:02;;;;;;;25.77;15.63;;;0.40;19.50;;;;;;5112117;28;20222;-81
2022/12/14 09:19:28;;;;;;;26.00;16.60;;;0.20;16.30;;;;;;5099119;28;20213;-81
2022/12/14 09:21:54;;;;;;;28.47;16.63;;;0.10;17.60;;;;;;5104695;28;20178;-80
2022/12/14 09:24:21;;;;;;;27.93;16.23;;;0.20;18.90;;;;;;5082921;28;20198;-81
2022/12/14 09:26:47;;;;;;;23.00;15.57;;;0.20;18.00;;;;;;5095515;28;20168;-79
2022/12/14 09:29:15;;;;;;;31.10;16.80;;;0.20;15.30;;;;;;5095707;28;20183;-82
2022/12/14 09:31:41;;;;;;;26.90;16.00;;;0.40;14.40;;;;;;5078315;28;20191;-79
2022/12/14 09:34:08;;;;;;;21.70;15.53;;;0.40;13.20;;;;;;5095898;28;20220;-81
2022/12/14 09:36:34;;;;;;;23.50;16.80;;;0.50;11.60;;;;;;5094933;28;20171;-81
2022/12/14 09:39:00;;;;;;;27.90;17.30;;;0.70;8.30;;;;;;5111127;28;20218;-80
2022/12/14 09:41:35;;;;;;;25.10;15.60;;;0.90;3.90;;;;;;5082245;28;20180;-80
2022/12/14 09:44:23;;;;;;;20.80;14.00;;;0.90;1.00;;;;;;5087402;28;20542;-81
2022/12/14 09:46:52;;;;;;;25.80;15.63;;;0.70;1.00;;;;;;5114875;28;20189;-80
2022/12/14 09:49:31;;;;;;;26.63;15.90;;;0.90;1.00;;;;;;5121266;28;20252;-80
2022/12/14 09:52:02;;;;;;;24.33;15.60;;;0.70;1.00;;;;;;5114475;28;20179;-81
2022/12/14 09:54:35;;;;;;;21.63;15.10;;;0.70;1.00;;;;;;5091490;28;20182;-83
2022/12/14 09:57:28;;;;;;;23.30;15.47;;;0.60;1.00;;;;;;5082656;28;20172;-82
2022/12/14 09:59:54;;;;;;;24.30;16.20;;;0.50;1.00;;;;;;5082691;28;20188;-81
2022/12/14 10:02:33;;;;;;;24.23;15.13;;;0.80;1.00;;;;;;5096252;28;20234;-81
2022/12/14 10:05:23;;;;;;;24.80;15.73;;;0.60;1.00;;;;;;5129374;28;20204;-82
2022/12/14 10:08:12;;;;;;;23.07;16.23;;;0.60;1.00;;;;;;5082342;28;20183;-81
2022/12/14 10:10:42;;;;;;;22.10;13.03;;;0.60;1.00;;;;;;5095949;28;20197;-78
2022/12/14 10:13:23;;;;;;;19.57;13.83;;;1.00;1.00;;;;;;5102399;28;20260;-77
2022/12/14 10:16:08;;;;;;;21.00;13.87;;;1.50;4.80;;;;;;5111263;28;20191;-80
2022/12/14 10:19:11;;;;;;;23.23;15.93;;;1.60;1.00;;;;;;5128261;28;20233;-81
2022/12/14 10:21:59;;;;;;;24.17;15.03;;;1.40;1.00;;;;;;5129109;28;20228;-83
2022/12/14 10:24:40;;;;;;;21.50;14.00;;;1.40;1.00;;;;;;5112059;28;20183;-82
2022/12/14 10:27:13;;;;;;;23.47;15.50;;;1.30;1.00;;;;;;5104667;28;20542;-80
2022/12/14 10:29:49;;;;;;;22.73;14.47;;;1.30;1.00;;;;;;5118820;28;20164;-78
2022/12/14 10:32:17;;;;;;;25.80;15.60;;;1.20;1.00;;;;;;5099445;28;20182;-81
2022/12/14 10:34:43;;;;;;;23.93;15.10;;;1.30;1.00;;;;;;5098849;28;20631;-80
2022/12/14 10:37:38;;;;;;;22.53;15.80;;;1.30;1.00;;;;;;5114901;28;20202;-81
2022/12/14 10:40:09;;;;;;;29.33;16.20;;;1.40;1.00;;;;;;5115722;28;20555;-82
2022/12/14 10:43:04;;;;;;;26.50;15.97;;;1.40;1.00;;;;;;5096795;28;20178;-81
2022/12/14 10:45:45;;;;;;;24.50;14.87;;;1.40;1.00;;;;;;5079427;28;20650;-82
2022/12/14 10:48:38;;;;;;;20.10;14.53;;;1.50;1.00;;;;;;5114522;28;20186;-81
2022/12/14 10:51:10;;;;;;;22.17;14.43;;;1.40;1.00;;;;;;5114787;28;20155;-81
2022/12/14 10:53:50;;;;;;;20.63;14.53;;;1.50;1.00;;;;;;5114377;28;20190;-81
2022/12/14 10:56:23;;;;;;;27.07;15.60;;;1.80;1.00;;;;;;5114119;28;20173;-79
2022/12/14 10:59:19;;;;;;;24.50;15.47;;;1.80;1.00;;;;;;5107396;28;20206;-80
2022/12/14 11:01:48;;;;;;;28.17;14.83;;;1.70;1.00;;;;;;5095049;28;20167;-81
2022/12/14 11:04:38;;;;;;;21.97;13.90;;;1.70;1.00;;;;;;5094279;28;20548;-81
2022/12/14 11:07:12;;;;;;;20.13;13.67;;;1.40;1.00;;;;;;5064369;28;20180;-81
2022/12/14 11:09:38;;;;;;;21.20;14.90;;;1.30;1.00;;;;;;5094317;28;20187;-81
2022/12/14 11:12:13;;;;;;;22.87;15.23;;;1.50;1.00;;;;;;5093922;28;20168;-79
2022/12/14 11:14:52;;;;;;;25.20;15.47;;;1.80;1.00;;;;;;5094075;28;20195;-80
2022/12/14 11:17:38;;;;;;;23.17;13.40;;;1.90;1.00;;;;;;5097049;28;20237;-81
2022/12/14 11:20:12;;;;;;;20.87;12.70;;;1.80;1.00;;;;;;5112968;28;20170;-80
2022/12/14 11:23:15;;;;;;;18.13;11.80;;;1.50;1.00;;;;;;5105645;28;20162;-81
2022/12/14 11:25:45;;;;;;;20.43;12.13;;;1.30;1.00;;;;;;5076411;28;20175;-81
2022/12/14 11:28:45;;;;;;;22.53;13.57;;;1.30;1.00;;;;;;5078364;28;20191;-82
2022/12/14 11:31:20;;;;;;;21.27;12.07;;;1.30;1.00;;;;;;5066789;28;20182;-81
2022/12/14 11:33:47;;;;;;;19.17;13.47;;;1.20;1.00;;;;;;5096222;28;20170;-81
2022/12/14 11:36:37;;;;;;;22.80;13.43;;;1.10;1.00;;;;;;5117050;28;20174;-79
2022/12/14 11:39:11;;;;;;;21.07;13.43;;;1.10;1.00;;;;;;5091579;28;20582;-81
2022/12/14 11:41:42;;;;;;;19.37;13.67;;;1.30;1.00;;;;;;5134416;28;20169;-80
2022/12/14 11:44:13;;;;;;;19.77;13.57;;;1.40;1.00;;;;;;5116519;28;20166;-80
2022/12/14 11:46:43;;;;;;;23.47;13.07;;;1.40;1.00;;;;;;5116412;28;20299;-80
2022/12/14 11:49:37;;;;;;;17.73;13.53;;;1.40;1.00;;;;;;5080680;28;20221;-80
2022/12/14 11:52:21;;;;;;;21.27;13.67;;;1.50;1.00;;;;;;5079662;28;20156;-81
2022/12/14 11:55:11;;;;;;;20.47;13.93;;;1.40;1.00;;;;;;5152345;28;20250;-81
2022/12/14 11:57:58;;;;;;;23.30;13.57;;;1.30;1.00;;;;;;5121872;28;20294;-81
2022/12/14 12:00:43;;;;;;;23.30;14.47;;;1.20;1.00;;;;;;5134161;28;20170;-81
2022/12/14 12:03:38;;;;;;;22.47;15.13;;;1.20;1.00;;;;;;5115792;28;20259;-81
2022/12/14 12:06:11;;;;;;;24.10;14.37;;;1.30;1.00;;;;;;5131449;28;20193;-80
2022/12/14 12:08:39;;;;;;;22.47;15.10;;;1.20;1.00;;;;;;5135421;28;20173;-80
2022/12/14 12:11:16;;;;;;;26.37;15.60;;;1.20;1.00;;;;;;5122485;28;20281;-80
2022/12/14 12:13:44;;;;;;;24.80;16.60;;;1.20;1.00;;;;;;5095867;28;20170;-80
2022/12/14 12:16:18;;;;;;;25.50;15.07;;;1.20;1.00;;;;;;5113093;28;20200;-81
2022/12/14 12:18:53;;;;;;;25.30;16.87;;;1.30;1.00;;;;;;5113613;28;20684;-82
2022/12/14 12:21:29;;;;;;;23.33;14.97;;;1.20;1.00;;;;;;5109491;28;20266;-83
2022/12/14 12:23:55;;;;;;;22.47;15.90;;;1.20;1.00;;;;;;5094101;28;20218;-82
2022/12/14 12:26:31;;;;;;;24.20;14.53;;;1.20;1.00;;;;;;5103584;28;20268;-81
2022/12/14 12:29:14;;;;;;;22.57;14.73;;;1.20;1.00;;;;;;5101786;28;20249;-82
2022/12/14 12:32:22;;;;;;;23.50;15.93;;;1.10;1.00;;;;;;5111965;28;20179;-82
2022/12/14 12:35:05;;;;;;;22.13;13.80;;;1.10;1.00;;;;;;5094099;28;20303;-82
2022/12/14 12:37:59;;;;;;;23.73;15.47;;;1.10;1.00;;;;;;5104726;28;20197;-82
2022/12/14 12:40:54;;;;;;;23.63;15.00;;;1.30;1.00;;;;;;5096418;28;20179;-81
2022/12/14 12:43:32;;;;;;;26.17;15.33;;;1.30;1.00;;;;;;5108120;28;20619;-80
2022/12/14 12:46:04;;;;;;;24.17;14.80;;;1.50;1.00;;;;;;5102822;28;20180;-83
2022/12/14 12:49:02;;;;;;;23.17;14.80;;;1.50;1.00;;;;;;5103133;27;20271;-83
2022/12/14 12:51:33;;;;;;;22.10;15.53;;;1.50;1.00;;;;;;5110584;28;20592;-81
2022/12/14 12:54:05;;;;;;;23.77;15.73;;;1.60;1.00;;;;;;5129144;28;20167;-80
2022/12/14 12:56:50;;;;;;;24.90;14.80;;;1.70;1.00;;;;;;5095644;27;20171;-82
2022/12/14 12:59:20;;;;;;;21.50;16.17;;;1.70;1.00;;;;;;5140607;27;20266;-81
2022/12/14 13:02:06;;;;;;;24.33;16.10;;;1.70;1.00;;;;;;5119910;28;20186;-82
2022/12/14 13:04:39;;;;;;;26.10;16.00;;;1.80;1.00;;;;;;5124932;27;20205;-81
2022/12/14 13:07:45;;;;;;;24.13;16.03;;;1.80;1.00;;;;;;5099079;28;20244;-82
2022/12/14 13:10:29;;;;;;;25.80;17.17;;;1.90;1.00;;;;;;5083697;28;20277;-83
2022/12/14 13:13:00;;;;;;;30.43;16.03;;;1.90;1.00;;;;;;5111795;28;20177;-82
2022/12/14 13:15:28;;;;;;;33.90;18.30;;;1.90;1.00;;;;;;5118939;28;20178;-82
2022/12/14 13:18:09;;;;;;;33.37;18.43;;;1.80;1.00;;;;;;5097726;28;20294;-81
2022/12/14 13:20:35;;;;;;;36.93;19.73;;;2.00;1.00;;;;;;5097714;28;20243;-82
2022/12/14 13:23:03;;;;;;;41.43;21.50;;;2.10;1.00;;;;;;5099939;28;20167;-83